createdAt,value
2022-10-22T00:00:50.505Z,68.40
2022-10-22T00:01:51.037Z,66.58
2022-10-22T00:02:50.452Z,63.41
2022-10-22T00:03:50.455Z,61.72
2022-10-22T00:04:50.351Z,59.03
2022-10-22T00:05:50.352Z,68.14
2022-10-22T00:06:50.367Z,66.72
2022-10-22T00:07:50.374Z,54.76
2022-10-22T00:08:50.386Z,65.82
2022-10-22T00:09:50.349Z,64.64
2022-10-22T00:10:50.294Z,65.18
2022-10-22T00:11:50.271Z,55.00
2022-10-22T00:12:50.255Z,48.15
2022-10-22T00:13:50.297Z,57.41
2022-10-22T00:14:50.249Z,61.28
2022-10-22T00:15:50.247Z,60.76
2022-10-22T00:16:50.252Z,56.87
2022-10-22T00:17:50.219Z,68.80
2022-10-22T00:18:50.199Z,47.07
2022-10-22T00:19:50.228Z,60.61
2022-10-22T00:20:50.203Z,60.88
2022-10-22T00:21:50.172Z,59.59
2022-10-22T00:23:50.164Z,62.22
2022-10-22T00:24:50.191Z,60.08
2022-10-22T00:25:50.156Z,65.91
2022-10-22T00:26:50.136Z,68.82
2022-10-22T00:27:50.133Z,68.57
2022-10-22T00:28:50.108Z,66.07
2022-10-22T00:29:50.072Z,67.60
2022-10-22T00:30:50.099Z,59.99
2022-10-22T00:31:50.088Z,70.48
2022-10-22T00:32:50.100Z,66.47
2022-10-22T00:33:50.044Z,65.39
2022-10-22T00:34:50.013Z,67.34
2022-10-22T00:35:50.006Z,54.36
2022-10-22T00:36:49.998Z,57.29
2022-10-22T00:37:50.008Z,60.67
2022-10-22T00:38:49.957Z,69.34
2022-10-22T00:39:50.156Z,63.83
2022-10-22T00:40:49.999Z,61.46
2022-10-22T00:41:50.128Z,60.18
2022-10-22T00:42:49.948Z,64.45
2022-10-22T00:43:49.984Z,57.55
2022-10-22T00:44:49.946Z,62.39
2022-10-22T00:45:49.857Z,56.69
2022-10-22T00:46:49.908Z,70.42
2022-10-22T00:47:49.890Z,63.13
2022-10-22T00:48:49.855Z,65.70
2022-10-22T00:49:49.964Z,61.14
2022-10-22T00:50:49.825Z,64.58
2022-10-22T00:51:49.812Z,67.04
2022-10-22T00:52:49.825Z,60.17
2022-10-22T00:53:49.811Z,49.75
2022-10-22T00:54:49.807Z,62.87
2022-10-22T00:55:49.850Z,62.02
2022-10-22T00:56:49.734Z,59.94
2022-10-22T00:57:49.793Z,62.67
2022-10-22T00:58:49.723Z,69.00
2022-10-22T00:59:49.693Z,68.10
2022-10-22T01:00:49.797Z,67.02
2022-10-22T01:01:49.681Z,66.94
2022-10-22T01:02:49.728Z,65.15
2022-10-22T01:03:49.761Z,65.10
2022-10-22T01:04:49.630Z,63.85
2022-10-22T01:05:49.717Z,60.97
2022-10-22T01:06:49.770Z,64.99
2022-10-22T01:07:50.585Z,66.84
2022-10-22T01:08:49.640Z,60.47
2022-10-22T01:09:49.578Z,66.91
2022-10-22T01:10:49.610Z,59.52
2022-10-22T01:11:49.742Z,49.29
2022-10-22T01:12:49.810Z,69.43
2022-10-22T01:13:49.674Z,70.64
2022-10-22T01:14:49.523Z,61.23
2022-10-22T01:15:49.558Z,64.35
2022-10-22T01:16:49.513Z,65.71
2022-10-22T01:17:49.479Z,62.23
2022-10-22T01:18:49.550Z,70.15
2022-10-22T01:19:49.482Z,60.07
2022-10-22T01:20:49.456Z,55.40
2022-10-22T01:21:49.494Z,63.69
2022-10-22T01:22:49.415Z,62.91
2022-10-22T01:23:49.422Z,45.98
2022-10-22T01:24:49.403Z,53.42
2022-10-22T01:25:49.363Z,56.83
2022-10-22T01:26:49.415Z,59.77
2022-10-22T01:27:49.387Z,65.56
2022-10-22T01:28:50.580Z,67.49
2022-10-22T01:29:49.365Z,65.71
2022-10-22T01:30:49.335Z,60.90
2022-10-22T01:31:49.359Z,63.26
2022-10-22T01:32:49.319Z,66.47
2022-10-22T01:33:49.939Z,67.14
2022-10-22T01:34:49.324Z,62.39
2022-10-22T01:35:49.263Z,58.30
2022-10-22T01:36:49.256Z,65.73
2022-10-22T01:37:49.267Z,66.05
2022-10-22T01:38:49.236Z,69.31
2022-10-22T01:39:49.206Z,63.11
2022-10-22T01:40:49.292Z,62.18
2022-10-22T01:41:49.233Z,58.11
2022-10-22T01:42:49.223Z,62.38
2022-10-22T01:43:49.463Z,61.75
2022-10-22T01:44:49.157Z,60.60
2022-10-22T01:45:49.235Z,67.68
2022-10-22T01:46:49.192Z,60.71
2022-10-22T01:47:49.201Z,65.07
2022-10-22T01:48:49.191Z,59.39
2022-10-22T01:49:49.160Z,66.38
2022-10-22T01:50:49.149Z,61.25
2022-10-22T01:51:49.085Z,64.36
2022-10-22T01:52:49.142Z,65.75
2022-10-22T01:53:49.131Z,66.77
2022-10-22T01:54:49.133Z,68.45
2022-10-22T01:55:49.168Z,68.12
2022-10-22T01:56:49.135Z,69.78
2022-10-22T01:57:49.126Z,62.43
2022-10-22T01:58:49.110Z,61.25
2022-10-22T01:59:49.012Z,69.78
2022-10-22T02:00:49.117Z,68.03
2022-10-22T02:01:48.948Z,69.47
2022-10-22T02:02:48.980Z,63.30
2022-10-22T02:03:49.024Z,55.36
2022-10-22T02:04:49.961Z,61.59
2022-10-22T02:05:49.022Z,64.85
2022-10-22T02:06:48.952Z,67.85
2022-10-22T02:07:48.933Z,60.56
2022-10-22T02:08:48.970Z,64.46
2022-10-22T02:09:49.495Z,59.30
2022-10-22T02:10:49.216Z,68.02
2022-10-22T02:11:49.040Z,68.58
2022-10-22T02:12:48.913Z,59.95
2022-10-22T02:13:48.865Z,63.51
2022-10-22T02:14:48.868Z,69.55
2022-10-22T02:15:49.042Z,59.48
2022-10-22T02:16:48.875Z,59.33
2022-10-22T02:17:48.905Z,61.15
2022-10-22T02:18:48.790Z,71.13
2022-10-22T02:19:48.733Z,67.19
2022-10-22T02:20:48.913Z,61.69
2022-10-22T02:21:48.766Z,57.77
2022-10-22T02:22:49.601Z,66.79
2022-10-22T02:23:48.848Z,62.25
2022-10-22T02:24:48.727Z,56.03
2022-10-22T02:25:48.774Z,59.18
2022-10-22T02:26:48.723Z,65.86
2022-10-22T02:27:48.782Z,69.67
2022-10-22T02:28:48.797Z,69.92
2022-10-22T02:29:48.766Z,67.00
2022-10-22T02:30:49.466Z,65.60
2022-10-22T02:31:48.727Z,69.20
2022-10-22T02:32:48.760Z,67.92
2022-10-22T02:33:48.714Z,64.02
2022-10-22T02:34:48.602Z,64.32
2022-10-22T02:35:48.774Z,66.65
2022-10-22T02:36:50.421Z,66.28
2022-10-22T02:37:48.743Z,64.82
2022-10-22T02:38:48.762Z,67.35
2022-10-22T02:39:48.735Z,60.39
2022-10-22T02:40:48.646Z,58.87
2022-10-22T02:41:48.619Z,66.52
2022-10-22T02:42:48.722Z,61.90
2022-10-22T02:43:48.667Z,67.32
2022-10-22T02:44:48.755Z,63.10
2022-10-22T02:45:48.622Z,58.86
2022-10-22T02:46:48.658Z,67.31
2022-10-22T02:47:50.483Z,63.41
2022-10-22T02:48:48.911Z,62.58
2022-10-22T02:49:48.563Z,72.42
2022-10-22T02:50:48.723Z,67.43
2022-10-22T02:51:48.579Z,66.99
2022-10-22T02:52:48.527Z,67.25
2022-10-22T02:53:48.683Z,70.51
2022-10-22T02:54:48.535Z,66.31
2022-10-22T02:55:50.023Z,65.45
2022-10-22T02:56:48.543Z,67.56
2022-10-22T02:57:48.491Z,69.46
2022-10-22T02:58:48.344Z,70.32
2022-10-22T02:59:48.335Z,67.66
2022-10-22T03:00:48.424Z,63.55
2022-10-22T03:01:48.259Z,69.03
2022-10-22T03:02:48.247Z,65.09
2022-10-22T03:03:48.260Z,68.22
2022-10-22T03:04:48.256Z,69.32
2022-10-22T03:05:48.275Z,69.49
2022-10-22T03:06:48.270Z,68.55
2022-10-22T03:07:48.200Z,67.86
2022-10-22T03:08:48.234Z,62.98
2022-10-22T03:09:48.172Z,71.95
2022-10-22T03:10:48.171Z,67.26
2022-10-22T03:11:48.175Z,68.86
2022-10-22T03:12:48.124Z,68.39
2022-10-22T03:13:48.133Z,66.06
2022-10-22T03:14:48.115Z,69.35
2022-10-22T03:15:48.124Z,70.84
2022-10-22T03:16:48.056Z,69.98
2022-10-22T03:17:48.092Z,69.59
2022-10-22T03:18:48.086Z,69.47
2022-10-22T03:19:48.022Z,70.71
2022-10-22T03:20:48.055Z,70.52
2022-10-22T03:21:48.056Z,72.65
2022-10-22T03:22:48.057Z,70.87
2022-10-22T03:23:47.957Z,71.29
2022-10-22T03:24:48.181Z,70.17
2022-10-22T03:25:48.077Z,68.15
2022-10-22T03:26:49.001Z,59.37
2022-10-22T03:27:47.976Z,65.63
2022-10-22T03:28:47.900Z,67.08
2022-10-22T03:29:48.114Z,69.24
2022-10-22T03:30:48.081Z,67.64
2022-10-22T03:31:47.913Z,71.73
2022-10-22T03:32:47.882Z,71.02
2022-10-22T03:33:47.860Z,67.15
2022-10-22T03:34:47.932Z,72.95
2022-10-22T03:35:47.858Z,71.63
2022-10-22T03:36:47.889Z,69.20
2022-10-22T03:37:47.837Z,72.22
2022-10-22T03:38:47.826Z,68.56
2022-10-22T03:39:47.812Z,70.29
2022-10-22T03:40:47.808Z,69.19
2022-10-22T03:41:47.805Z,70.52
2022-10-22T03:42:47.793Z,71.92
2022-10-22T03:43:47.742Z,70.08
2022-10-22T03:44:47.731Z,71.33
2022-10-22T03:45:47.724Z,71.47
2022-10-22T03:46:47.731Z,69.59
2022-10-22T03:47:47.709Z,67.59
2022-10-22T03:48:47.722Z,68.32
2022-10-22T03:49:47.737Z,72.92
2022-10-22T03:50:47.681Z,69.11
2022-10-22T03:51:47.685Z,67.04
2022-10-22T03:52:47.656Z,69.83
2022-10-22T03:53:47.650Z,68.92
2022-10-22T03:54:47.635Z,72.24
2022-10-22T03:55:47.623Z,69.50
2022-10-22T03:56:47.582Z,68.96
2022-10-22T03:57:47.610Z,70.03
2022-10-22T03:58:47.562Z,70.92
2022-10-22T03:59:47.592Z,60.50
2022-10-22T04:00:47.582Z,66.30
2022-10-22T04:01:47.508Z,70.41
2022-10-22T04:02:47.558Z,68.69
2022-10-22T04:03:47.508Z,72.26
2022-10-22T04:04:47.518Z,70.62
2022-10-22T04:05:47.507Z,67.73
2022-10-22T04:06:47.499Z,70.39
2022-10-22T04:07:47.469Z,70.03
2022-10-22T04:08:47.510Z,70.72
2022-10-22T04:09:47.438Z,70.92
2022-10-22T04:10:47.451Z,70.78
2022-10-22T04:11:47.382Z,71.54
2022-10-22T04:12:47.519Z,70.62
2022-10-22T04:13:47.383Z,69.80
2022-10-22T04:14:47.386Z,66.83
2022-10-22T04:15:47.355Z,72.50
2022-10-22T04:16:47.344Z,67.18
2022-10-22T04:17:47.319Z,71.64
2022-10-22T04:18:47.388Z,74.67
2022-10-22T04:19:47.291Z,73.03
2022-10-22T04:20:47.304Z,73.43
2022-10-22T04:21:47.283Z,69.39
2022-10-22T04:22:47.305Z,71.79
2022-10-22T04:23:47.267Z,73.50
2022-10-22T04:24:47.330Z,69.66
2022-10-22T04:25:47.270Z,68.20
2022-10-22T04:26:47.235Z,71.00
2022-10-22T04:27:47.215Z,71.31
2022-10-22T04:28:47.232Z,67.57
2022-10-22T04:29:47.223Z,68.35
2022-10-22T04:30:47.169Z,66.65
2022-10-22T04:31:47.176Z,70.69
2022-10-22T04:32:47.208Z,69.70
2022-10-22T04:33:47.127Z,72.35
2022-10-22T04:34:47.148Z,70.62
2022-10-22T04:35:47.144Z,70.27
2022-10-22T04:36:47.214Z,72.09
2022-10-22T04:37:48.046Z,72.63
2022-10-22T04:38:47.088Z,73.33
2022-10-22T04:39:47.109Z,71.37
2022-10-22T04:40:47.088Z,70.18
2022-10-22T04:41:47.065Z,70.31
2022-10-22T04:42:47.080Z,70.90
2022-10-22T04:43:47.076Z,71.27
2022-10-22T04:44:47.116Z,70.85
2022-10-22T04:45:47.068Z,70.43
2022-10-22T04:46:46.985Z,68.82
2022-10-22T04:47:47.012Z,70.53
2022-10-22T04:48:46.933Z,70.07
2022-10-22T04:49:46.974Z,68.27
2022-10-22T04:50:46.941Z,69.43
2022-10-22T04:51:46.924Z,70.30
2022-10-22T04:52:46.896Z,69.67
2022-10-22T04:53:46.935Z,68.86
2022-10-22T04:54:46.929Z,69.96
2022-10-22T04:55:46.933Z,71.06
2022-10-22T04:56:46.862Z,70.38
2022-10-22T04:57:46.881Z,63.73
2022-10-22T04:58:46.862Z,71.26
2022-10-22T04:59:46.837Z,70.42
2022-10-22T05:00:46.841Z,69.71
2022-10-22T05:01:46.814Z,70.49
2022-10-22T05:02:46.862Z,69.17
2022-10-22T05:03:46.772Z,70.54
2022-10-22T05:04:46.800Z,71.07
2022-10-22T05:05:46.789Z,71.90
2022-10-22T05:06:46.732Z,69.21
2022-10-22T05:07:46.746Z,72.68
2022-10-22T05:08:46.760Z,74.31
2022-10-22T05:09:46.697Z,70.71
2022-10-22T05:10:46.705Z,70.84
2022-10-22T05:11:46.739Z,70.39
2022-10-22T05:12:46.659Z,70.58
2022-10-22T05:13:46.686Z,69.32
2022-10-22T05:14:47.514Z,73.54
2022-10-22T05:15:46.621Z,70.30
2022-10-22T05:17:47.628Z,70.67
2022-10-22T05:18:46.594Z,71.13
2022-10-22T05:19:46.760Z,69.29
2022-10-22T05:20:46.655Z,66.09
2022-10-22T05:21:46.602Z,67.88
2022-10-22T05:22:46.571Z,71.68
2022-10-22T05:23:46.562Z,70.74
2022-10-22T05:24:46.559Z,70.51
2022-10-22T05:25:46.592Z,69.86
2022-10-22T05:26:46.508Z,72.05
2022-10-22T05:27:46.494Z,71.03
2022-10-22T05:28:46.494Z,69.18
2022-10-22T05:29:46.499Z,69.04
2022-10-22T05:30:46.454Z,70.32
2022-10-22T05:31:46.462Z,72.20
2022-10-22T05:32:46.452Z,71.00
2022-10-22T05:33:46.435Z,69.62
2022-10-22T05:34:46.430Z,71.03
2022-10-22T05:35:46.879Z,71.96
2022-10-22T05:36:47.391Z,67.43
2022-10-22T05:37:46.434Z,70.02
2022-10-22T05:38:46.361Z,70.52
2022-10-22T05:39:46.397Z,68.39
2022-10-22T05:40:46.335Z,72.22
2022-10-22T05:41:46.350Z,73.92
2022-10-22T05:42:46.335Z,72.30
2022-10-22T05:43:46.537Z,73.63
2022-10-22T05:44:46.331Z,74.49
2022-10-22T05:45:46.355Z,70.71
2022-10-22T05:46:46.267Z,71.85
2022-10-22T05:47:46.235Z,70.21
2022-10-22T05:48:46.279Z,74.21
2022-10-22T05:49:46.244Z,73.31
2022-10-22T05:50:46.245Z,71.83
2022-10-22T05:51:46.256Z,70.89
2022-10-22T05:52:46.204Z,71.08
2022-10-22T05:53:46.208Z,73.52
2022-10-22T05:54:46.186Z,67.90
2022-10-22T05:55:46.193Z,71.44
2022-10-22T05:56:46.194Z,73.23
2022-10-22T05:57:46.181Z,67.81
2022-10-22T05:58:46.163Z,70.90
2022-10-22T05:59:46.152Z,65.55
2022-10-22T06:00:46.233Z,71.56
2022-10-22T06:01:46.211Z,67.36
2022-10-22T06:02:46.096Z,69.43
2022-10-22T06:03:47.005Z,72.88
2022-10-22T06:04:46.093Z,73.45
2022-10-22T06:05:46.059Z,70.46
2022-10-22T06:06:46.034Z,71.27
2022-10-22T06:07:46.021Z,70.16
2022-10-22T06:08:46.108Z,69.17
2022-10-22T06:09:46.028Z,70.18
2022-10-22T06:10:45.986Z,73.03
2022-10-22T06:11:45.988Z,72.48
2022-10-22T06:12:45.941Z,72.69
2022-10-22T06:13:45.976Z,70.26
2022-10-22T06:14:45.953Z,68.87
2022-10-22T06:15:45.997Z,72.55
2022-10-22T06:16:45.996Z,71.13
2022-10-22T06:17:45.933Z,70.99
2022-10-22T06:18:45.922Z,73.64
2022-10-22T06:19:45.967Z,70.77
2022-10-22T06:20:45.878Z,70.99
2022-10-22T06:21:45.864Z,70.90
2022-10-22T06:22:45.831Z,71.50
2022-10-22T06:23:45.892Z,71.68
2022-10-22T06:24:45.846Z,73.28
2022-10-22T06:25:45.798Z,74.12
2022-10-22T06:26:45.885Z,73.26
2022-10-22T06:27:45.790Z,74.07
2022-10-22T06:28:45.746Z,71.76
2022-10-22T06:29:45.778Z,72.58
2022-10-22T06:30:46.683Z,71.43
2022-10-22T06:31:46.748Z,71.54
2022-10-22T06:32:45.750Z,72.65
2022-10-22T06:33:45.752Z,70.99
2022-10-22T06:34:45.719Z,73.60
2022-10-22T06:35:46.694Z,73.52
2022-10-22T06:36:45.681Z,71.70
2022-10-22T06:37:45.651Z,73.69
2022-10-22T06:38:45.656Z,73.10
2022-10-22T06:39:45.637Z,67.52
2022-10-22T06:40:45.646Z,73.08
2022-10-22T06:41:45.619Z,74.50
2022-10-22T06:42:45.583Z,72.76
2022-10-22T06:43:45.587Z,73.94
2022-10-22T06:44:45.550Z,74.28
2022-10-22T06:45:45.564Z,72.67
2022-10-22T06:46:45.557Z,72.49
2022-10-22T06:47:45.531Z,75.05
2022-10-22T06:48:45.575Z,70.82
2022-10-22T06:49:45.492Z,73.93
2022-10-22T06:50:45.564Z,74.13
2022-10-22T06:51:45.496Z,73.91
2022-10-22T06:52:45.448Z,73.67
2022-10-22T06:53:45.510Z,73.78
2022-10-22T06:54:45.442Z,72.94
2022-10-22T06:55:45.456Z,75.28
2022-10-22T06:56:45.438Z,74.05
2022-10-22T06:57:45.427Z,73.57
2022-10-22T06:58:45.407Z,74.24
2022-10-22T06:59:45.402Z,70.18
2022-10-22T07:00:45.401Z,72.22
2022-10-22T07:01:45.417Z,71.78
2022-10-22T07:02:45.361Z,71.41
2022-10-22T07:03:45.329Z,71.77
2022-10-22T07:04:45.351Z,74.89
2022-10-22T07:05:45.358Z,72.44
2022-10-22T07:06:45.349Z,72.40
2022-10-22T07:07:45.305Z,70.89
2022-10-22T07:08:45.354Z,72.34
2022-10-22T07:09:45.297Z,73.48
2022-10-22T07:10:45.311Z,72.59
2022-10-22T07:11:45.268Z,70.24
2022-10-22T07:12:45.260Z,74.23
2022-10-22T07:13:45.228Z,72.87
2022-10-22T07:14:45.256Z,70.13
2022-10-22T07:15:45.201Z,74.02
2022-10-22T07:16:46.369Z,74.01
2022-10-22T07:17:45.859Z,76.23
2022-10-22T07:18:45.176Z,75.34
2022-10-22T07:19:48.423Z,73.94
2022-10-22T07:20:47.150Z,71.89
2022-10-22T07:21:45.146Z,73.46
2022-10-22T07:22:45.907Z,73.08
2022-10-22T07:23:45.119Z,76.08
2022-10-22T07:24:45.099Z,75.65
2022-10-22T07:25:45.181Z,74.48
2022-10-22T07:26:45.115Z,74.62
2022-10-22T07:27:45.067Z,74.61
2022-10-22T07:28:45.024Z,72.32
2022-10-22T07:29:45.067Z,73.97
2022-10-22T07:30:45.073Z,73.14
2022-10-22T07:31:45.036Z,74.37
2022-10-22T07:32:45.007Z,74.61
2022-10-22T07:33:44.998Z,74.69
2022-10-22T07:34:44.978Z,74.99
2022-10-22T07:35:44.958Z,75.31
2022-10-22T07:36:44.975Z,73.47
2022-10-22T07:37:44.935Z,73.06
2022-10-22T07:38:44.935Z,74.07
2022-10-22T07:39:44.963Z,73.45
2022-10-22T07:40:44.896Z,72.66
2022-10-22T07:41:44.907Z,73.12
2022-10-22T07:42:44.894Z,73.21
2022-10-22T07:43:44.865Z,73.63
2022-10-22T07:44:44.868Z,73.17
2022-10-22T07:45:44.859Z,74.20
2022-10-22T07:46:48.111Z,73.19
2022-10-22T07:47:45.840Z,75.45
2022-10-22T07:48:44.828Z,74.61
2022-10-22T07:49:44.804Z,74.30
2022-10-22T07:51:45.785Z,72.85
2022-10-22T07:52:44.769Z,72.54
2022-10-22T07:53:44.775Z,73.06
2022-10-22T07:54:44.788Z,73.97
2022-10-22T07:55:44.730Z,72.22
2022-10-22T07:56:44.740Z,72.38
2022-10-22T07:57:44.748Z,72.62
2022-10-22T07:58:44.720Z,73.85
2022-10-22T07:59:44.892Z,73.96
2022-10-22T08:00:44.996Z,71.70
2022-10-22T08:01:45.555Z,74.00
2022-10-22T08:02:44.669Z,72.76
2022-10-22T08:03:44.664Z,73.58
2022-10-22T08:04:44.688Z,73.12
2022-10-22T08:05:44.620Z,72.99
2022-10-22T08:06:47.211Z,73.81
2022-10-22T08:07:44.629Z,75.12
2022-10-22T08:08:44.637Z,76.24
2022-10-22T08:09:44.584Z,73.61
2022-10-22T08:10:44.627Z,73.54
2022-10-22T08:11:44.550Z,72.27
2022-10-22T08:12:44.833Z,72.72
2022-10-22T08:13:45.803Z,72.85
2022-10-22T08:14:45.522Z,75.72
2022-10-22T08:16:44.492Z,73.24
2022-10-22T08:17:45.493Z,73.91
2022-10-22T08:18:44.478Z,73.27
2022-10-22T08:19:44.516Z,74.24
2022-10-22T08:20:44.437Z,74.71
2022-10-22T08:21:44.436Z,76.10
2022-10-22T08:22:44.438Z,76.11
2022-10-22T08:23:44.430Z,74.19
2022-10-22T08:24:44.405Z,73.38
2022-10-22T08:25:44.430Z,71.71
2022-10-22T08:26:44.374Z,75.04
2022-10-22T08:27:44.404Z,75.03
2022-10-22T08:28:44.350Z,73.46
2022-10-22T08:29:44.353Z,70.42
2022-10-22T08:30:44.353Z,75.15
2022-10-22T08:31:44.310Z,74.01
2022-10-22T08:32:44.322Z,75.84
2022-10-22T08:33:44.283Z,72.89
2022-10-22T08:34:44.468Z,75.12
2022-10-22T08:35:44.297Z,74.23
2022-10-22T08:36:44.257Z,75.24
2022-10-22T08:37:44.369Z,73.63
2022-10-22T08:38:44.249Z,75.26
2022-10-22T08:39:44.234Z,76.02
2022-10-22T08:40:44.309Z,74.67
2022-10-22T08:41:44.235Z,76.78
2022-10-22T08:42:44.334Z,75.36
2022-10-22T08:43:44.158Z,74.17
2022-10-22T08:44:44.184Z,75.99
2022-10-22T08:45:44.158Z,74.75
2022-10-22T08:46:44.151Z,74.94
2022-10-22T08:47:44.119Z,74.26
2022-10-22T08:48:44.122Z,75.04
2022-10-22T08:49:44.115Z,74.59
2022-10-22T08:50:44.098Z,73.56
2022-10-22T08:51:44.086Z,76.89
2022-10-22T08:52:44.104Z,76.34
2022-10-22T08:53:44.070Z,74.02
2022-10-22T08:54:44.036Z,73.53
2022-10-22T08:55:44.025Z,74.53
2022-10-22T08:56:44.036Z,75.52
2022-10-22T08:57:45.652Z,75.75
2022-10-22T08:58:44.019Z,74.88
2022-10-22T08:59:43.989Z,74.48
2022-10-22T09:00:43.992Z,74.26
2022-10-22T09:01:43.959Z,75.36
2022-10-22T09:02:44.231Z,74.85
2022-10-22T09:03:43.934Z,74.48
2022-10-22T09:04:43.957Z,74.38
2022-10-22T09:05:44.029Z,74.19
2022-10-22T09:06:43.927Z,74.94
2022-10-22T09:07:44.122Z,73.80
2022-10-22T09:08:43.947Z,75.06
2022-10-22T09:09:43.875Z,73.40
2022-10-22T09:10:44.472Z,74.85
2022-10-22T09:11:43.859Z,74.94
2022-10-22T09:12:43.848Z,74.05
2022-10-22T09:13:43.827Z,74.89
2022-10-22T09:14:43.835Z,75.37
2022-10-22T09:15:46.473Z,75.54
2022-10-22T09:16:43.820Z,74.93
2022-10-22T09:17:44.255Z,76.54
2022-10-22T09:18:43.807Z,73.56
2022-10-22T09:19:43.793Z,75.28
2022-10-22T09:20:43.809Z,75.25
2022-10-22T09:21:43.737Z,76.09
2022-10-22T09:22:43.713Z,74.66
2022-10-22T09:23:43.714Z,72.58
2022-10-22T09:24:43.717Z,74.23
2022-10-22T09:25:43.693Z,75.40
2022-10-22T09:26:43.688Z,74.98
2022-10-22T09:27:44.126Z,73.71
2022-10-22T09:28:43.673Z,75.00
2022-10-22T09:29:43.685Z,74.02
2022-10-22T09:30:44.757Z,74.08
2022-10-22T09:31:43.617Z,72.42
2022-10-22T09:32:43.939Z,73.96
2022-10-22T09:33:43.613Z,73.55
2022-10-22T09:34:43.626Z,75.94
2022-10-22T09:35:44.474Z,75.93
2022-10-22T09:36:43.591Z,74.76
2022-10-22T09:37:43.551Z,73.75
2022-10-22T09:38:43.562Z,73.61
2022-10-22T09:39:43.638Z,73.11
2022-10-22T09:40:43.522Z,74.77
2022-10-22T09:41:43.538Z,74.82
2022-10-22T09:42:43.814Z,74.88
2022-10-22T09:43:43.502Z,76.38
2022-10-22T09:44:46.194Z,74.15
2022-10-22T09:45:44.143Z,75.74
2022-10-22T09:46:44.481Z,73.66
2022-10-22T09:48:01.125Z,76.34
2022-10-22T09:48:44.650Z,75.25
2022-10-22T09:49:43.442Z,74.89
2022-10-22T09:50:43.426Z,75.40
2022-10-22T09:51:43.406Z,73.24
2022-10-22T09:52:43.849Z,73.49
2022-10-22T09:53:43.374Z,74.04
2022-10-22T09:54:43.731Z,74.91
2022-10-22T09:55:43.403Z,76.71
2022-10-22T09:56:43.343Z,73.53
2022-10-22T09:57:44.467Z,74.10
2022-10-22T09:58:43.356Z,74.60
2022-10-22T09:59:43.994Z,75.12
2022-10-22T10:00:43.350Z,73.90
2022-10-22T10:01:43.287Z,74.70
2022-10-22T10:02:43.339Z,74.22
2022-10-22T10:03:43.274Z,73.14
2022-10-22T10:04:46.356Z,74.07
2022-10-22T10:05:43.639Z,73.42
2022-10-22T10:06:43.267Z,73.23
2022-10-22T10:07:43.710Z,73.12
2022-10-22T10:08:43.272Z,74.54
2022-10-22T10:09:43.192Z,75.67
2022-10-22T10:10:43.240Z,73.08
2022-10-22T10:11:43.201Z,73.33
2022-10-22T10:12:43.231Z,75.01
2022-10-22T10:13:43.287Z,76.76
2022-10-22T10:14:43.224Z,74.43
2022-10-22T10:15:43.336Z,75.60
2022-10-22T10:16:43.231Z,78.04
2022-10-22T10:17:43.524Z,76.96
2022-10-22T10:18:43.151Z,76.40
2022-10-22T10:19:43.179Z,76.80
2022-10-22T10:20:43.188Z,75.33
2022-10-22T10:21:43.080Z,73.17
2022-10-22T10:22:43.549Z,75.64
2022-10-22T10:23:43.088Z,74.44
2022-10-22T10:24:43.363Z,74.85
2022-10-22T10:25:43.095Z,76.06
2022-10-22T10:26:43.096Z,76.04
2022-10-22T10:27:43.380Z,75.60
2022-10-22T10:28:43.060Z,75.46
2022-10-22T10:29:42.998Z,75.17
2022-10-22T10:30:43.005Z,73.58
2022-10-22T10:31:42.979Z,73.28
2022-10-22T10:32:43.564Z,76.18
2022-10-22T10:33:43.254Z,76.12
2022-10-22T10:34:43.022Z,75.87
2022-10-22T10:35:42.933Z,76.23
2022-10-22T10:36:42.956Z,76.51
2022-10-22T10:37:43.005Z,74.58
2022-10-22T10:38:43.145Z,74.76
2022-10-22T10:39:53.364Z,73.01
2022-10-22T10:40:44.757Z,76.32
2022-10-22T10:41:44.258Z,75.68
2022-10-22T10:42:43.724Z,75.88
2022-10-22T10:43:43.046Z,72.61
2022-10-22T10:44:43.221Z,74.56
2022-10-22T10:45:43.521Z,72.88
2022-10-22T10:46:42.827Z,73.93
2022-10-22T10:47:44.421Z,76.52
2022-10-22T10:48:42.805Z,74.43
2022-10-22T10:49:42.789Z,73.96
2022-10-22T10:50:42.827Z,76.36
2022-10-22T10:51:42.877Z,75.14
2022-10-22T10:52:42.823Z,75.34
2022-10-22T10:53:42.932Z,74.17
2022-10-22T10:54:42.791Z,75.51
2022-10-22T10:55:42.725Z,75.03
2022-10-22T10:56:42.783Z,73.38
2022-10-22T10:57:43.914Z,72.77
2022-10-22T10:58:42.702Z,74.55
2022-10-22T10:59:42.742Z,74.74
2022-10-22T11:00:42.923Z,74.12
2022-10-22T11:01:42.982Z,73.98
2022-10-22T11:02:45.441Z,73.48
2022-10-22T11:03:42.651Z,76.11
2022-10-22T11:04:42.682Z,72.56
2022-10-22T11:05:42.695Z,75.54
2022-10-22T11:06:42.654Z,74.57
2022-10-22T11:07:42.590Z,74.77
2022-10-22T11:08:43.706Z,74.12
2022-10-22T11:09:42.676Z,73.42
2022-10-22T11:10:42.697Z,75.59
2022-10-22T11:11:42.561Z,74.28
2022-10-22T11:12:42.824Z,74.83
2022-10-22T11:13:42.598Z,74.17
2022-10-22T11:14:42.534Z,73.71
2022-10-22T11:15:42.507Z,75.83
2022-10-22T11:16:42.490Z,74.08
2022-10-22T11:17:42.483Z,73.75
2022-10-22T11:18:42.459Z,73.32
2022-10-22T11:19:52.269Z,74.11
2022-10-22T11:20:44.466Z,74.72
2022-10-22T11:21:42.567Z,74.95
2022-10-22T11:23:00.413Z,74.81
2022-10-22T11:23:44.418Z,73.71
2022-10-22T11:24:42.655Z,72.71
2022-10-22T11:25:42.388Z,74.81
2022-10-22T11:26:42.380Z,72.92
2022-10-22T11:27:42.949Z,74.17
2022-10-22T11:28:43.012Z,73.32
2022-10-22T11:29:42.343Z,74.66
2022-10-22T11:30:42.338Z,73.91
2022-10-22T11:31:42.368Z,73.71
2022-10-22T11:32:43.581Z,73.11
2022-10-22T11:33:42.408Z,73.03
2022-10-22T11:34:42.309Z,74.31
2022-10-22T11:35:42.315Z,75.14
2022-10-22T11:36:42.261Z,73.78
2022-10-22T11:37:42.634Z,74.46
2022-10-22T11:38:42.264Z,74.85
2022-10-22T11:39:42.244Z,75.28
2022-10-22T11:40:42.232Z,73.79
2022-10-22T11:41:42.565Z,74.61
2022-10-22T11:42:42.220Z,73.73
2022-10-22T11:43:42.235Z,75.50
2022-10-22T11:44:42.271Z,75.54
2022-10-22T11:45:42.162Z,75.69
2022-10-22T11:46:42.253Z,76.99
2022-10-22T11:47:42.567Z,73.74
2022-10-22T11:48:42.124Z,74.17
2022-10-22T11:49:42.896Z,75.76
2022-10-22T11:50:42.117Z,74.70
2022-10-22T11:51:42.172Z,74.39
2022-10-22T11:52:42.121Z,74.02
2022-10-22T11:53:42.338Z,75.18
2022-10-22T11:54:42.077Z,74.67
2022-10-22T11:55:42.057Z,75.15
2022-10-22T11:56:42.065Z,74.00
2022-10-22T11:57:42.458Z,74.33
2022-10-22T11:58:42.082Z,74.42
2022-10-22T11:59:42.102Z,74.09
2022-10-22T12:00:42.080Z,76.44
2022-10-22T12:01:42.589Z,75.33
2022-10-22T12:02:42.390Z,75.90
2022-10-22T12:03:43.357Z,74.86
2022-10-22T12:04:42.119Z,74.09
2022-10-22T12:05:42.005Z,74.37
2022-10-22T12:06:42.926Z,74.97
2022-10-22T12:07:43.070Z,72.79
2022-10-22T12:08:42.979Z,74.64
2022-10-22T12:09:41.929Z,75.58
2022-10-22T12:10:41.980Z,74.79
2022-10-22T12:11:41.946Z,73.97
2022-10-22T12:12:42.288Z,74.36
2022-10-22T12:13:41.938Z,73.44
2022-10-22T12:14:44.701Z,73.59
2022-10-22T12:15:41.839Z,74.23
2022-10-22T12:16:55.556Z,76.16
2022-10-22T12:17:43.842Z,73.92
2022-10-22T12:18:41.829Z,74.60
2022-10-22T12:19:41.972Z,73.63
2022-10-22T12:20:41.779Z,76.18
2022-10-22T12:21:41.778Z,75.43
2022-10-22T12:22:42.338Z,74.65
2022-10-22T12:23:41.945Z,74.76
2022-10-22T12:24:41.834Z,75.60
2022-10-22T12:25:41.734Z,73.88
2022-10-22T12:26:41.764Z,73.60
2022-10-22T12:27:42.054Z,73.00
2022-10-22T12:28:41.726Z,75.30
2022-10-22T12:29:41.710Z,75.04
2022-10-22T12:30:42.651Z,74.27
2022-10-22T12:31:42.428Z,75.05
2022-10-22T12:32:41.683Z,73.63
2022-10-22T12:33:41.658Z,75.11
2022-10-22T12:34:41.678Z,75.12
2022-10-22T12:35:41.688Z,75.49
2022-10-22T12:36:41.635Z,74.80
2022-10-22T12:37:41.961Z,72.13
2022-10-22T12:38:41.614Z,72.53
2022-10-22T12:39:41.888Z,73.90
2022-10-22T12:40:45.843Z,73.78
2022-10-22T12:41:43.607Z,75.16
2022-10-22T12:42:41.671Z,73.83
2022-10-22T12:43:41.537Z,74.99
2022-10-22T12:44:43.139Z,73.27
2022-10-22T12:45:43.482Z,75.06
2022-10-22T12:46:41.527Z,73.04
2022-10-22T12:47:41.829Z,71.60
2022-10-22T12:48:41.710Z,72.36
2022-10-22T12:49:41.560Z,72.91
2022-10-22T12:50:41.627Z,74.15
2022-10-22T12:51:41.492Z,75.31
2022-10-22T12:52:41.732Z,72.86
2022-10-22T12:53:41.845Z,75.46
2022-10-22T12:54:43.907Z,76.07
2022-10-22T12:55:41.526Z,75.10
2022-10-22T12:56:42.600Z,75.23